Time;durP1;ratioP1;P1;durP2;ratioP2;P2;SDS_P1;SDS_P2;PMS_P1;PMS_P2;Temp;Humidity;BMP_temperature;BMP_pressure;BME280_temperature;BME280_humidity;BME280_pressure;Samples;Min_cycle;Max_cycle;Signal;HPM_P1;HPM_P2
2024/04/21 00:00:39;;;;;;;26.70;18.80;;;;;;;3.61;64.73;100724.27;111115;1252;21965;-65
2024/04/21 00:03:28;;;;;;;24.20;17.80;;;;;;;3.59;64.88;100722.08;111250;1252;21958;-65
2024/04/21 00:05:57;;;;;;;24.60;18.00;;;;;;;3.59;64.96;100719.84;111236;1240;23820;-65
2024/04/21 00:08:26;;;;;;;22.10;17.10;;;;;;;3.60;64.99;100722.57;111317;1252;22904;-67
2024/04/21 00:10:54;;;;;;;23.60;17.90;;;;;;;3.60;64.87;100723.27;111300;1252;21978;-65
2024/04/21 00:13:24;;;;;;;21.00;16.90;;;;;;;3.60;64.90;100725.55;111270;1252;24100;-65
2024/04/21 00:15:52;;;;;;;21.80;15.70;;;;;;;3.60;64.86;100722.55;111368;1252;21951;-65
2024/04/21 00:18:21;;;;;;;18.80;16.70;;;;;;;3.60;64.73;100723.80;111390;1252;22979;-66
2024/04/21 00:20:50;;;;;;;24.40;17.30;;;;;;;3.57;64.69;100724.08;111328;1252;23559;-66
2024/04/21 00:23:19;;;;;;;19.60;15.70;;;;;;;3.54;64.76;100722.98;111350;1252;21954;-66
2024/04/21 00:26:00;;;;;;;15.70;12.60;;;;;;;3.48;64.69;100720.73;111342;1252;23779;-67
2024/04/21 00:28:32;;;;;;;14.30;12.10;;;;;;;3.41;64.82;100721.15;111331;1252;21949;-66
2024/04/21 00:31:01;;;;;;;15.90;13.60;;;;;;;3.36;64.95;100724.45;111278;1252;22284;-66
2024/04/21 00:33:30;;;;;;;17.00;12.30;;;;;;;3.33;64.95;100725.09;111022;1252;22246;-66
2024/04/21 00:35:59;;;;;;;15.80;12.70;;;;;;;3.29;65.10;100726.77;111259;1252;21951;-66
2024/04/21 00:38:28;;;;;;;16.40;12.90;;;;;;;3.26;65.24;100725.98;111449;1252;21978;-64
2024/04/21 00:40:57;;;;;;;15.70;13.30;;;;;;;3.26;65.24;100728.28;111308;1252;23779;-66
2024/04/21 00:43:26;;;;;;;19.10;15.10;;;;;;;3.26;65.22;100733.33;111142;1252;21931;-65
2024/04/21 00:45:55;;;;;;;21.60;16.40;;;;;;;3.22;65.09;100732.23;111388;1252;21953;-65
2024/04/21 00:48:25;;;;;;;22.00;17.10;;;;;;;3.19;65.21;100734.77;111391;1252;21954;-66
2024/04/21 00:50:55;;;;;;;21.70;16.80;;;;;;;3.14;64.99;100736.16;111064;1252;24904;-66
2024/04/21 00:53:25;;;;;;;23.20;17.80;;;;;;;3.08;65.05;100739.67;111214;1252;187388;-66
2024/04/21 00:55:56;;;;;;;21.20;17.00;;;;;;;3.01;65.11;100742.86;111296;1252;21958;-66
2024/04/21 00:58:25;;;;;;;22.70;15.60;;;;;;;2.95;64.99;100744.08;111331;1252;23769;-66
2024/04/21 01:00:55;;;;;;;22.90;16.40;;;;;;;2.89;65.15;100742.54;111019;1252;22417;-67
2024/04/21 01:03:24;;;;;;;18.80;14.50;;;;;;;2.84;65.18;100741.13;111320;1252;21950;-68
2024/04/21 01:05:53;;;;;;;20.80;14.80;;;;;;;2.79;65.37;100741.45;111355;1252;21980;-65
2024/04/21 01:08:22;;;;;;;18.90;14.60;;;;;;;2.75;65.49;100737.26;111345;1252;22819;-66
2024/04/21 01:10:51;;;;;;;21.90;17.20;;;;;;;2.71;65.49;100738.58;111068;1252;22045;-65
2024/04/21 01:13:20;;;;;;;21.40;17.00;;;;;;;2.65;65.62;100735.64;111264;1252;22051;-65
2024/04/21 01:15:52;;;;;;;26.70;19.50;;;;;;;2.59;65.87;100735.83;111333;1252;23721;-65
2024/04/21 01:18:21;;;;;;;26.70;19.70;;;;;;;2.55;66.07;100735.11;111081;1252;21953;-65
2024/04/21 01:20:50;;;;;;;28.50;19.00;;;;;;;2.52;66.03;100739.35;111381;1252;23663;-65
2024/04/21 01:23:19;;;;;;;28.10;21.40;;;;;;;2.50;66.08;100741.84;111299;1252;21960;-65
2024/04/21 01:25:48;;;;;;;31.20;20.70;;;;;;;2.45;66.17;100746.68;111352;1252;21963;-64
2024/04/21 01:28:17;;;;;;;32.60;21.90;;;;;;;2.41;66.26;100750.12;111285;1251;22022;-65
2024/04/21 01:30:46;;;;;;;25.00;18.90;;;;;;;2.38;66.23;100754.39;111372;1252;21952;-66
2024/04/21 01:33:15;;;;;;;26.00;17.10;;;;;;;2.31;66.21;100755.27;111282;1252;21964;-65
2024/04/21 01:35:46;;;;;;;19.90;15.70;;;;;;;2.25;66.30;100760.13;111319;1252;21955;-66
2024/04/21 01:38:16;;;;;;;16.50;13.30;;;;;;;2.19;66.21;100759.45;111289;1252;21952;-66
2024/04/21 01:40:45;;;;;;;13.80;12.20;;;;;;;2.13;66.35;100759.45;111345;1252;23002;-65
2024/04/21 01:43:14;;;;;;;21.90;13.20;;;;;;;2.10;66.26;100764.23;111109;1252;21948;-65
2024/04/21 01:45:43;;;;;;;15.40;12.40;;;;;;;2.06;66.49;100761.22;111355;1252;21962;-65
2024/04/21 01:48:12;;;;;;;13.20;11.80;;;;;;;2.03;66.52;100764.61;111280;1252;21963;-65
2024/04/21 01:50:41;;;;;;;16.50;12.80;;;;;;;2.01;66.36;100762.91;111267;1252;22711;-66
2024/04/21 01:53:09;;;;;;;13.70;10.70;;;;;;;1.98;66.38;100766.66;110991;1252;21962;-65
2024/04/21 01:55:38;;;;;;;15.00;11.50;;;;;;;1.93;66.31;100766.95;111249;1252;21953;-65
2024/04/21 01:58:07;;;;;;;15.20;11.80;;;;;;;1.89;66.41;100766.91;111335;1252;21952;-66
2024/04/21 02:00:36;;;;;;;16.10;12.20;;;;;;;1.84;66.32;100767.89;111297;1252;21953;-66
2024/04/21 02:03:05;;;;;;;13.90;11.30;;;;;;;1.81;66.11;100766.26;111380;1252;21953;-65
2024/04/21 02:05:34;;;;;;;16.90;12.20;;;;;;;1.75;66.08;100767.10;111314;1252;21958;-65
2024/04/21 02:08:04;;;;;;;14.10;10.50;;;;;;;1.69;65.82;100765.88;111611;1252;21948;-66
2024/04/21 02:10:33;;;;;;;11.10;8.90;;;;;;;1.64;65.78;100772.96;111312;1252;22023;-64
2024/04/21 02:13:02;;;;;;;12.00;8.50;;;;;;;1.59;65.75;100773.62;111270;1252;23289;-65
2024/04/21 02:15:31;;;;;;;11.50;8.50;;;;;;;1.53;65.52;100775.84;111325;1252;21954;-64
2024/04/21 02:18:00;;;;;;;13.50;9.00;;;;;;;1.49;65.73;100775.09;111310;1252;22413;-66
2024/04/21 02:20:29;;;;;;;9.30;8.20;;;;;;;1.46;65.74;100775.16;111071;1252;23020;-66
2024/04/21 02:22:58;;;;;;;11.10;9.60;;;;;;;1.43;65.89;100777.48;111355;1252;21955;-65
2024/04/21 02:25:26;;;;;;;14.00;9.20;;;;;;;1.40;65.88;100774.10;111293;1252;21952;-66
2024/04/21 02:27:56;;;;;;;13.30;9.90;;;;;;;1.39;66.03;100779.00;111384;1252;21966;-67
2024/04/21 02:30:25;;;;;;;19.80;10.90;;;;;;;1.38;66.00;100779.19;111000;1252;21954;-65
2024/04/21 02:32:54;;;;;;;13.80;11.40;;;;;;;1.34;66.09;100781.54;111280;1252;21958;-66
2024/04/21 02:35:23;;;;;;;15.80;11.70;;;;;;;1.31;66.27;100784.23;111262;1252;21955;-66
2024/04/21 02:37:52;;;;;;;20.10;13.50;;;;;;;1.28;66.32;100782.92;111350;1252;22032;-65
2024/04/21 02:40:21;;;;;;;21.00;15.70;;;;;;;1.24;66.23;100786.99;111268;1252;21952;-65
2024/04/21 02:42:50;;;;;;;19.50;14.40;;;;;;;1.18;66.18;100786.79;111276;1252;21994;-67
2024/04/21 02:45:20;;;;;;;21.70;15.70;;;;;;;1.14;66.19;100784.66;111317;1252;21956;-66
2024/04/21 02:47:49;;;;;;;17.60;14.20;;;;;;;1.10;66.26;100787.00;111419;1252;21956;-66
2024/04/21 02:50:18;;;;;;;20.60;14.10;;;;;;;1.07;66.21;100787.94;111331;1252;22495;-65
2024/04/21 02:52:47;;;;;;;18.30;13.70;;;;;;;1.04;66.28;100790.79;111351;1244;21970;-66
2024/04/21 02:55:17;;;;;;;23.50;14.80;;;;;;;1.02;66.48;100788.40;111304;1242;22764;-66
2024/04/21 02:57:46;;;;;;;18.40;15.40;;;;;;;1.01;66.55;100792.94;111300;1252;23676;-66
2024/04/21 03:00:14;;;;;;;16.70;13.80;;;;;;;1.00;66.56;100791.74;111338;1252;21961;-66
2024/04/21 03:02:43;;;;;;;19.30;16.10;;;;;;;0.99;66.89;100792.98;111314;1252;21954;-66
2024/04/21 03:05:13;;;;;;;22.90;16.40;;;;;;;1.00;66.75;100796.25;111282;1252;22415;-66
2024/04/21 03:07:42;;;;;;;21.90;18.20;;;;;;;1.00;67.03;100798.16;111273;1252;22414;-66
2024/04/21 03:10:11;;;;;;;22.50;15.70;;;;;;;1.02;67.27;100799.50;111340;1252;21953;-67
2024/04/21 03:12:39;;;;;;;31.00;17.30;;;;;;;1.03;67.02;100798.60;111266;1252;23012;-65
2024/04/21 03:15:08;;;;;;;19.70;16.00;;;;;;;1.04;67.20;100796.85;111025;1245;22022;-66
2024/04/21 03:17:38;;;;;;;21.40;15.90;;;;;;;1.05;67.21;100798.05;111045;1253;21948;-66
2024/04/21 03:20:08;;;;;;;21.20;15.80;;;;;;;1.02;67.12;100799.15;111039;1253;23689;-64
2024/04/21 03:22:36;;;;;;;20.10;15.40;;;;;;;0.98;66.90;100794.40;111043;1253;21960;-66
2024/04/21 03:25:05;;;;;;;16.50;13.50;;;;;;;0.95;66.98;100791.67;111012;1244;22066;-67
2024/04/21 03:27:34;;;;;;;20.70;15.50;;;;;;;0.94;66.96;100793.27;111074;1253;23012;-67
2024/04/21 03:30:04;;;;;;;22.20;15.50;;;;;;;0.92;67.01;100793.66;111013;1253;21996;-67
2024/04/21 03:32:33;;;;;;;17.90;13.20;;;;;;;0.92;67.03;100794.52;111252;1252;21982;-66
2024/04/21 03:35:02;;;;;;;20.00;15.30;;;;;;;0.94;67.21;100791.52;111292;1252;21977;-66
2024/04/21 03:37:31;;;;;;;15.50;12.60;;;;;;;0.99;67.22;100794.89;111252;1252;22113;-66
2024/04/21 03:40:01;;;;;;;15.70;13.20;;;;;;;1.02;67.05;100791.70;111256;1252;21952;-68
2024/04/21 03:42:30;;;;;;;16.30;13.00;;;;;;;1.03;67.09;100787.68;111314;1251;21955;-65
2024/04/21 03:44:59;;;;;;;17.40;13.60;;;;;;;1.04;67.00;100783.33;111354;1252;21966;-64
2024/04/21 03:47:28;;;;;;;20.50;12.80;;;;;;;1.07;66.98;100786.39;111339;1252;21972;-64
2024/04/21 03:49:57;;;;;;;18.10;14.00;;;;;;;1.09;66.98;100785.98;111440;1252;21957;-64
2024/04/21 03:52:26;;;;;;;17.20;14.20;;;;;;;1.13;67.03;100786.41;110999;1252;23672;-66
2024/04/21 03:54:55;;;;;;;25.60;16.80;;;;;;;1.17;67.17;100788.38;111324;1252;21978;-64
2024/04/21 03:57:29;;;;;;;27.20;19.40;;;;;;;1.21;67.15;100786.38;111126;1252;22048;-64
2024/04/21 03:59:59;;;;;;;24.20;19.00;;;;;;;1.24;67.27;100790.46;111388;1252;21961;-64
2024/04/21 04:02:28;;;;;;;21.90;17.00;;;;;;;1.28;67.21;100789.15;111341;1252;23585;-64
2024/04/21 04:04:57;;;;;;;18.60;15.70;;;;;;;1.31;66.78;100790.29;111364;1252;22721;-65
2024/04/21 04:07:26;;;;;;;21.50;15.70;;;;;;;1.31;66.80;100784.57;111307;1252;22052;-64
2024/04/21 04:09:55;;;;;;;19.00;14.00;;;;;;;1.30;66.66;100787.55;111343;1252;21959;-64
2024/04/21 04:12:24;;;;;;;18.00;13.90;;;;;;;1.30;66.76;100787.38;111518;1248;21959;-63
2024/04/21 04:14:54;;;;;;;19.00;14.80;;;;;;;1.30;66.67;100786.84;111271;1252;21957;-65
2024/04/21 04:17:23;;;;;;;16.70;11.80;;;;;;;1.31;66.71;100787.35;111246;1252;24292;-66
2024/04/21 04:19:52;;;;;;;17.50;12.20;;;;;;;1.32;66.61;100788.70;111302;1252;21957;-65
2024/04/21 04:22:21;;;;;;;15.50;11.30;;;;;;;1.32;66.66;100789.06;111241;1252;21963;-64
2024/04/21 04:24:50;;;;;;;14.20;11.00;;;;;;;1.35;66.68;100790.55;111280;1248;22102;-64
2024/04/21 04:27:19;;;;;;;17.10;11.50;;;;;;;1.39;66.69;100794.08;111284;1252;23051;-64
2024/04/21 04:29:47;;;;;;;14.60;10.00;;;;;;;1.42;66.72;100797.66;111307;1252;22418;-66
2024/04/21 04:32:16;;;;;;;14.90;9.80;;;;;;;1.45;66.71;100797.90;111260;1251;21958;-66
2024/04/21 04:34:46;;;;;;;13.20;9.90;;;;;;;1.47;66.68;100799.43;111277;1252;21967;-66
2024/04/21 04:37:15;;;;;;;16.50;10.00;;;;;;;1.51;66.73;100799.68;111204;1252;21968;-65
2024/04/21 04:39:44;;;;;;;15.30;11.50;;;;;;;1.55;66.59;100797.84;111360;1252;21961;-63
2024/04/21 04:42:13;;;;;;;20.50;16.10;;;;;;;1.59;66.55;100798.10;111341;1252;21957;-66
2024/04/21 04:44:42;;;;;;;18.30;13.00;;;;;;;1.61;66.08;100801.35;111363;1252;22734;-64
2024/04/21 04:47:11;;;;;;;15.40;13.00;;;;;;;1.56;65.98;100805.81;110973;1252;21952;-64
2024/04/21 04:49:40;;;;;;;13.10;11.30;;;;;;;1.52;66.18;100805.72;111335;1252;21944;-64
2024/04/21 04:52:10;;;;;;;14.40;11.20;;;;;;;1.53;66.35;100805.70;111385;1249;21950;-64
2024/04/21 04:54:39;;;;;;;14.90;11.10;;;;;;;1.57;66.34;100806.98;111368;1252;22416;-65
2024/04/21 04:57:08;;;;;;;16.10;11.30;;;;;;;1.61;66.33;100806.02;111268;1252;21950;-64
2024/04/21 04:59:37;;;;;;;12.00;9.70;;;;;;;1.62;66.19;100808.92;111289;1252;21952;-65
2024/04/21 05:02:06;;;;;;;18.50;10.70;;;;;;;1.57;66.15;100810.80;111045;1252;21962;-65
2024/04/21 05:04:35;;;;;;;14.50;9.50;;;;;;;1.52;66.31;100813.01;111431;1252;21951;-66
2024/04/21 05:07:04;;;;;;;10.90;9.00;;;;;;;1.52;66.23;100812.67;111419;1252;23727;-64
2024/04/21 05:09:33;;;;;;;15.20;10.80;;;;;;;1.54;66.45;100817.48;111436;1252;21954;-64
2024/04/21 05:12:03;;;;;;;19.10;11.90;;;;;;;1.58;66.70;100816.86;111361;1252;21955;-64
2024/04/21 05:14:32;;;;;;;17.20;13.00;;;;;;;1.63;66.51;100815.36;111404;1248;21952;-64
2024/04/21 05:17:01;;;;;;;20.10;15.70;;;;;;;1.68;66.52;100814.88;111424;1252;21952;-65
2024/04/21 05:19:30;;;;;;;18.20;14.40;;;;;;;1.71;66.46;100818.60;111385;1252;21966;-65
2024/04/21 05:21:59;;;;;;;16.60;12.90;;;;;;;1.72;66.04;100821.16;111272;1252;21965;-65
2024/04/21 05:24:28;;;;;;;17.80;14.10;;;;;;;1.73;66.32;100823.75;111295;1252;22019;-64
2024/04/21 05:26:57;;;;;;;16.00;12.70;;;;;;;1.75;66.06;100825.44;111488;1252;21952;-64
2024/04/21 05:29:26;;;;;;;17.50;12.60;;;;;;;1.79;66.34;100827.93;111313;1252;22030;-65
2024/04/21 05:31:55;;;;;;;15.40;11.90;;;;;;;1.84;66.21;100830.07;111057;1252;21949;-66
2024/04/21 05:34:24;;;;;;;15.50;11.30;;;;;;;1.86;66.26;100828.95;111551;1252;22020;-66
2024/04/21 05:36:53;;;;;;;14.80;11.90;;;;;;;1.89;66.00;100831.14;111432;1252;23570;-65
2024/04/21 05:39:24;;;;;;;16.50;11.80;;;;;;;1.93;66.04;100830.34;111231;1252;22027;-63
2024/04/21 05:41:53;;;;;;;18.10;12.50;;;;;;;1.92;65.80;100837.31;111346;1252;21945;-64
2024/04/21 05:44:22;;;;;;;17.40;13.40;;;;;;;1.90;65.79;100837.38;111104;1252;22652;-64
2024/04/21 05:46:51;;;;;;;23.20;15.10;;;;;;;1.92;65.79;100834.36;111239;1252;23022;-64
2024/04/21 05:49:20;;;;;;;20.60;14.50;;;;;;;1.94;65.59;100835.86;111334;1252;24100;-66
2024/04/21 05:51:51;;;;;;;18.60;12.30;;;;;;;1.94;65.19;100837.10;111348;1252;21961;-64
2024/04/21 05:54:20;;;;;;;14.50;12.00;;;;;;;1.87;65.30;100831.89;111412;1242;21950;-64
2024/04/21 05:56:49;;;;;;;18.30;16.40;;;;;;;1.85;65.60;100835.26;111206;1252;23008;-64
2024/04/21 05:59:19;;;;;;;14.40;12.50;;;;;;;1.88;65.86;100838.29;111021;1252;22049;-64
2024/04/21 06:01:48;;;;;;;15.60;12.60;;;;;;;1.93;65.95;100839.71;111260;1252;22255;-66
2024/04/21 06:04:17;;;;;;;17.00;14.80;;;;;;;2.00;66.01;100843.19;111362;1252;22009;-67
2024/04/21 06:06:47;;;;;;;17.40;11.10;;;;;;;2.06;65.90;100841.48;111248;1252;21968;-64
2024/04/21 06:09:16;;;;;;;15.90;11.50;;;;;;;2.07;65.80;100839.17;111335;1252;21954;-64
2024/04/21 06:11:44;;;;;;;17.10;12.10;;;;;;;2.08;65.56;100836.73;111407;1252;21947;-65
2024/04/21 06:14:13;;;;;;;15.40;12.40;;;;;;;2.07;65.68;100841.09;111297;1252;23650;-66
2024/04/21 06:16:42;;;;;;;15.00;12.60;;;;;;;2.08;65.63;100840.72;111302;1252;21954;-67
2024/04/21 06:19:11;;;;;;;15.10;12.10;;;;;;;2.07;65.41;100842.48;110882;1252;21955;-64
2024/04/21 06:21:40;;;;;;;15.90;12.90;;;;;;;2.05;65.38;100842.18;111294;1252;23010;-66
2024/04/21 06:24:09;;;;;;;16.10;11.10;;;;;;;2.08;65.35;100842.64;111275;1252;24317;-66
2024/04/21 06:26:38;;;;;;;17.60;12.20;;;;;;;2.07;65.25;100843.35;111307;1252;21957;-65
2024/04/21 06:29:13;;;;;;;15.50;11.80;;;;;;;2.11;65.60;100842.90;111272;1252;21973;-66
2024/04/21 06:31:42;;;;;;;21.00;12.70;;;;;;;2.15;65.42;100847.64;111338;1252;23569;-65
2024/04/21 06:34:12;;;;;;;16.50;12.80;;;;;;;2.20;65.53;100845.60;111283;1252;23602;-64
2024/04/21 06:36:41;;;;;;;17.80;12.80;;;;;;;2.26;65.20;100850.48;111355;1252;21952;-65
2024/04/21 06:39:09;;;;;;;15.70;12.60;;;;;;;2.30;65.04;100847.94;111377;1252;21943;-65
2024/04/21 06:41:38;;;;;;;18.20;12.60;;;;;;;2.31;65.09;100847.89;111387;1252;21957;-64
2024/04/21 06:44:07;;;;;;;16.40;12.70;;;;;;;2.39;65.15;100849.23;111361;1252;21992;-65
2024/04/21 06:46:36;;;;;;;14.50;12.10;;;;;;;2.46;64.90;100849.73;111279;1252;21966;-65
2024/04/21 06:49:05;;;;;;;15.20;12.40;;;;;;;2.51;64.57;100848.38;111296;1248;21958;-63
2024/04/21 06:51:35;;;;;;;17.80;11.70;;;;;;;2.53;64.24;100848.84;111343;1253;21992;-64
2024/04/21 06:54:04;;;;;;;17.80;11.90;;;;;;;2.57;64.10;100847.69;111316;1252;21955;-64
2024/04/21 06:56:33;;;;;;;15.40;12.40;;;;;;;2.65;63.90;100847.63;111298;1252;21958;-66
2024/04/21 06:59:01;;;;;;;16.50;12.00;;;;;;;2.72;63.87;100849.50;111504;1252;21969;-66
2024/04/21 07:01:30;;;;;;;19.60;14.70;;;;;;;2.78;63.78;100851.08;111255;1252;21971;-69
2024/04/21 07:03:59;;;;;;;12.60;10.70;;;;;;;2.85;63.54;100849.95;111278;1252;21958;-66
2024/04/21 07:06:28;;;;;;;16.00;11.20;;;;;;;2.89;63.09;100852.63;111300;1253;21955;-66
2024/04/21 07:08:57;;;;;;;13.50;11.90;;;;;;;2.89;63.29;100850.71;111253;1252;21996;-66
2024/04/21 07:11:26;;;;;;;13.30;11.30;;;;;;;2.92;63.29;100850.98;111019;1252;21963;-67
2024/04/21 07:13:55;;;;;;;14.50;11.60;;;;;;;2.95;62.95;100848.60;111281;1252;22122;-67
2024/04/21 07:16:44;;;;;;;14.40;11.60;;;;;;;2.96;63.24;100850.69;111226;1252;21954;-69
2024/04/21 07:19:13;;;;;;;14.60;11.20;;;;;;;3.02;63.07;100852.59;111230;1252;23697;-66
2024/04/21 07:21:42;;;;;;;13.00;10.80;;;;;;;3.09;63.06;100851.48;111226;1252;23591;-66
2024/04/21 07:24:11;;;;;;;14.40;10.70;;;;;;;3.15;62.91;100855.14;111262;1253;21959;-67
2024/04/21 07:26:40;;;;;;;14.30;10.20;;;;;;;3.21;62.84;100852.33;111306;1253;21943;-68
2024/04/21 07:29:08;;;;;;;14.20;10.00;;;;;;;3.26;62.54;100856.53;111395;1253;21953;-65
2024/04/21 07:31:37;;;;;;;11.30;10.00;;;;;;;3.30;62.41;100853.95;111322;1245;21958;-67
2024/04/21 07:34:06;;;;;;;14.30;11.30;;;;;;;3.37;62.13;100857.92;111254;1252;21963;-66
2024/04/21 07:36:35;;;;;;;13.90;10.30;;;;;;;3.39;62.15;100858.04;111297;1252;22786;-65
2024/04/21 07:39:04;;;;;;;12.60;11.20;;;;;;;3.44;61.85;100856.48;111316;1252;22398;-65
2024/04/21 07:41:34;;;;;;;13.00;10.90;;;;;;;3.48;61.67;100860.49;111258;1252;22133;-64
2024/04/21 07:44:04;;;;;;;12.40;10.90;;;;;;;3.54;61.73;100859.98;111318;1252;21952;-65
2024/04/21 07:46:33;;;;;;;14.80;10.70;;;;;;;3.61;61.75;100858.70;111294;1253;21956;-65
2024/04/21 07:49:01;;;;;;;14.50;11.30;;;;;;;3.70;61.93;100856.83;111252;1253;21966;-64
2024/04/21 07:51:30;;;;;;;13.90;9.10;;;;;;;3.81;61.72;100856.82;111324;1252;22208;-66
2024/04/21 07:53:59;;;;;;;19.50;11.90;;;;;;;3.89;61.41;100855.50;111342;1252;22040;-64
2024/04/21 07:56:28;;;;;;;11.90;10.40;;;;;;;3.96;61.33;100855.94;111469;1253;21955;-65
2024/04/21 07:58:57;;;;;;;13.00;10.60;;;;;;;4.05;61.04;100858.07;111389;1252;21964;-65
2024/04/21 08:01:26;;;;;;;16.70;11.60;;;;;;;4.10;60.89;100858.61;111333;1252;21954;-65
2024/04/21 08:03:55;;;;;;;19.30;14.50;;;;;;;4.19;60.86;100857.41;111245;1252;22801;-66
2024/04/21 08:06:24;;;;;;;16.40;11.50;;;;;;;4.32;60.82;100857.83;111283;1252;22014;-68
2024/04/21 08:08:53;;;;;;;13.90;10.10;;;;;;;4.44;60.23;100858.05;111359;1252;22046;-64
2024/04/21 08:11:35;;;;;;;12.60;8.10;;;;;;;4.53;59.62;100857.73;110918;1253;21945;-66
2024/04/21 08:14:04;;;;;;;11.20;7.90;;;;;;;4.57;59.21;100854.63;111265;1253;22072;-68
2024/04/21 08:16:33;;;;;;;9.60;7.40;;;;;;;4.66;58.89;100851.67;111325;1252;21964;-66
2024/04/21 08:19:03;;;;;;;11.00;7.10;;;;;;;4.81;58.58;100856.70;111328;1253;21995;-65
2024/04/21 08:21:32;;;;;;;8.10;5.60;;;;;;;4.92;57.67;100852.27;111354;1241;23057;-65
2024/04/21 08:24:01;;;;;;;8.30;6.40;;;;;;;5.04;57.42;100852.69;111282;1253;22049;-65
2024/04/21 08:26:30;;;;;;;8.20;5.70;;;;;;;5.13;56.71;100848.82;111273;1252;21951;-64
2024/04/21 08:28:59;;;;;;;7.70;6.00;;;;;;;5.22;56.03;100850.73;111295;1252;22115;-65
2024/04/21 08:31:28;;;;;;;7.30;5.40;;;;;;;5.31;55.63;100854.02;111349;1252;23643;-64
2024/04/21 08:33:58;;;;;;;11.00;6.20;;;;;;;5.36;55.24;100851.75;111308;1252;21949;-65
2024/04/21 08:36:27;;;;;;;10.40;6.80;;;;;;;5.42;54.98;100850.09;111344;1252;22174;-65
2024/04/21 08:38:57;;;;;;;7.80;6.50;;;;;;;5.53;54.67;100849.14;111255;1252;24138;-66
2024/04/21 08:41:31;;;;;;;9.00;6.00;;;;;;;5.67;55.02;100852.05;111283;1252;22606;-66
2024/04/21 08:44:03;;;;;;;10.60;8.20;;;;;;;5.85;54.73;100851.44;111330;1252;23581;-65
2024/04/21 08:46:33;;;;;;;5.40;4.80;;;;;;;6.07;54.42;100853.52;111024;1252;21997;-67
2024/04/21 08:49:03;;;;;;;11.00;6.20;;;;;;;6.24;53.49;100851.02;111375;1252;21974;-68
2024/04/21 08:51:35;;;;;;;9.20;6.60;;;;;;;6.35;53.31;100851.95;111249;1252;22744;-64
2024/04/21 08:54:04;;;;;;;7.60;5.30;;;;;;;6.45;52.51;100854.61;111242;1252;21956;-65
2024/04/21 08:56:33;;;;;;;7.10;5.20;;;;;;;6.47;52.01;100851.56;111348;1252;24281;-64
2024/04/21 08:59:02;;;;;;;7.70;6.10;;;;;;;6.47;52.12;100845.61;111398;1252;23593;-66
2024/04/21 09:01:31;;;;;;;7.50;6.50;;;;;;;6.51;52.55;100846.33;111359;1253;21942;-68
2024/04/21 09:04:02;;;;;;;9.80;6.60;;;;;;;6.64;52.30;100850.80;110969;1252;21952;-64
2024/04/21 09:06:31;;;;;;;6.30;5.20;;;;;;;6.66;51.76;100849.65;111034;1252;21958;-65
2024/04/21 09:09:00;;;;;;;11.20;6.30;;;;;;;6.62;51.44;100847.76;111325;1252;22131;-66
2024/04/21 09:11:30;;;;;;;10.80;7.00;;;;;;;6.62;51.67;100847.05;111287;1253;22046;-66
2024/04/21 09:14:00;;;;;;;13.20;8.50;;;;;;;6.71;51.88;100848.03;111012;1253;23595;-66
2024/04/21 09:16:29;;;;;;;9.50;7.00;;;;;;;6.76;51.70;100846.73;111312;1253;21956;-65
2024/04/21 09:19:04;;;;;;;10.10;7.10;;;;;;;6.86;51.42;100846.44;111247;1252;23663;-66
2024/04/21 09:21:33;;;;;;;8.70;6.70;;;;;;;6.95;51.33;100847.95;111249;1252;22041;-67
2024/04/21 09:24:02;;;;;;;11.50;6.70;;;;;;;7.02;50.84;100846.58;111518;1252;21960;-66
2024/04/21 09:26:33;;;;;;;11.00;5.10;;;;;;;7.07;50.39;100851.77;111285;1253;23696;-66
2024/04/21 09:29:03;;;;;;;5.80;4.90;;;;;;;7.09;50.30;100850.10;111065;1252;21971;-64
2024/04/21 09:31:32;;;;;;;7.90;6.60;;;;;;;7.15;50.57;100848.77;111317;1253;23011;-66
2024/04/21 09:34:01;;;;;;;10.40;7.50;;;;;;;7.22;50.65;100847.90;111003;1252;21960;-66
2024/04/21 09:36:30;;;;;;;9.60;7.30;;;;;;;7.30;50.75;100846.30;111328;1252;21954;-64
2024/04/21 09:39:01;;;;;;;9.00;7.30;;;;;;;7.39;50.77;100849.54;111093;1253;21942;-64
2024/04/21 09:41:32;;;;;;;7.60;6.00;;;;;;;7.42;50.09;100852.85;111341;1251;21952;-65
2024/04/21 09:44:01;;;;;;;11.00;5.70;;;;;;;7.41;49.92;100848.92;111057;1253;23663;-65
2024/04/21 09:46:32;;;;;;;9.00;6.90;;;;;;;7.40;50.50;100848.59;111003;1252;21955;-67
2024/04/21 09:49:03;;;;;;;8.30;6.20;;;;;;;7.43;50.00;100853.85;111298;1252;22019;-65
2024/04/21 09:51:32;;;;;;;9.40;5.90;;;;;;;7.38;49.72;100851.65;110921;1253;21957;-65
2024/04/21 09:54:03;;;;;;;9.80;6.70;;;;;;;7.33;49.90;100847.02;111075;1253;23582;-66
2024/04/21 09:56:40;;;;;;;7.60;5.80;;;;;;;7.32;50.28;100847.58;111075;1253;23772;-65
2024/04/21 09:59:12;;;;;;;8.00;5.80;;;;;;;7.26;50.04;100846.66;111006;1253;23672;-65
2024/04/21 10:01:44;;;;;;;14.50;7.20;;;;;;;7.19;50.19;100847.52;110920;1253;22034;-65
2024/04/21 10:04:21;;;;;;;16.40;7.70;;;;;;;7.19;50.10;100849.80;111010;1253;21960;-64
2024/04/21 10:06:51;;;;;;;13.10;7.40;;;;;;;7.16;49.90;100848.56;111033;1253;21943;-66
2024/04/21 10:09:22;;;;;;;17.20;8.90;;;;;;;7.13;50.15;100843.28;111164;1253;21959;-63
2024/04/21 10:11:51;;;;;;;11.00;7.00;;;;;;;7.12;50.27;100844.36;111005;1253;21957;-65
2024/04/21 10:14:20;;;;;;;10.30;7.50;;;;;;;7.11;50.56;100843.38;111135;1253;21996;-64
2024/04/21 10:16:50;;;;;;;16.70;10.00;;;;;;;7.16;50.86;100840.85;111249;1238;23764;-65
2024/04/21 10:19:24;;;;;;;8.60;6.80;;;;;;;7.26;50.84;100839.84;111365;1247;23013;-65
2024/04/21 10:21:53;;;;;;;10.20;6.30;;;;;;;7.32;50.19;100842.15;111158;1251;21959;-65
2024/04/21 10:24:23;;;;;;;9.50;5.80;;;;;;;7.32;50.06;100839.16;111363;1251;21959;-65
2024/04/21 10:27:02;;;;;;;11.00;7.10;;;;;;;7.35;50.39;100839.54;111333;1251;22062;-66
2024/04/21 10:29:31;;;;;;;11.60;6.50;;;;;;;7.45;50.25;100841.53;111359;1251;21946;-68
2024/04/21 10:32:26;;;;;;;7.10;5.70;;;;;;;7.55;49.89;100841.75;111447;1251;22819;-66
2024/04/21 10:34:56;;;;;;;9.10;6.60;;;;;;;7.63;49.69;100842.58;111447;1251;23601;-67
2024/04/21 10:37:26;;;;;;;14.70;8.30;;;;;;;7.76;49.81;100838.94;111150;1251;22590;-66
2024/04/21 10:40:00;;;;;;;8.10;6.20;;;;;;;7.87;49.51;100838.52;111498;1251;22720;-66
2024/04/21 10:42:34;;;;;;;8.60;6.10;;;;;;;7.93;49.12;100841.54;111384;1248;23013;-66
2024/04/21 10:45:03;;;;;;;7.20;5.80;;;;;;;7.91;48.99;100839.02;111623;1247;22959;-67
2024/04/21 10:47:32;;;;;;;12.30;6.60;;;;;;;7.89;49.03;100837.89;111523;1251;22017;-66
2024/04/21 10:50:01;;;;;;;8.00;6.50;;;;;;;7.87;49.06;100837.98;111301;1245;23768;-67
2024/04/21 10:52:30;;;;;;;11.30;7.40;;;;;;;7.90;49.23;100837.48;111305;1243;23047;-67
2024/04/21 10:54:59;;;;;;;7.70;6.80;;;;;;;7.97;49.46;100840.81;111108;1251;21951;-66
2024/04/21 10:57:29;;;;;;;10.20;7.10;;;;;;;8.04;49.09;100840.48;111406;1251;21955;-67
2024/04/21 10:59:58;;;;;;;11.10;6.90;;;;;;;8.02;49.04;100836.20;111418;1251;21972;-67
2024/04/21 11:02:27;;;;;;;15.00;7.10;;;;;;;8.02;49.32;100838.66;111385;1251;21940;-65
2024/04/21 11:04:55;;;;;;;8.50;5.90;;;;;;;8.02;49.25;100839.85;111498;1251;21940;-67
2024/04/21 11:07:24;;;;;;;9.50;5.50;;;;;;;7.97;48.85;100837.68;111462;1251;22124;-66
2024/04/21 11:09:53;;;;;;;8.70;5.80;;;;;;;7.89;48.66;100836.84;111112;1251;24164;-67
2024/04/21 11:12:22;;;;;;;17.50;7.10;;;;;;;7.81;48.78;100839.20;111406;1251;23579;-67
2024/04/21 11:14:58;;;;;;;7.90;5.90;;;;;;;7.76;49.21;100837.90;111488;1251;21989;-66
2024/04/21 11:17:27;;;;;;;10.00;7.50;;;;;;;7.71;49.31;100844.63;111358;1251;21960;-67
2024/04/21 11:19:56;;;;;;;12.90;6.90;;;;;;;7.63;49.55;100844.86;111298;1238;22033;-67
2024/04/21 11:22:26;;;;;;;9.30;5.80;;;;;;;7.60;49.75;100846.42;111373;1251;22437;-66
2024/04/21 11:24:55;;;;;;;8.60;5.10;;;;;;;7.54;49.62;100846.20;111637;1246;23560;-68